sensor_id;sensor_type;location;lat;lon;timestamp;P1;durP1;ratioP1;P2;durP2;ratioP2
6111;SDS011;3086;48.802;9.394;2023-07-30T00:01:34;1.63;;;1.30;;
6111;SDS011;3086;48.802;9.394;2023-07-30T00:04:55;1.73;;;1.47;;
6111;SDS011;3086;48.802;9.394;2023-07-30T00:08:16;3.93;;;1.70;;
6111;SDS011;3086;48.802;9.394;2023-07-30T00:11:39;2.47;;;1.50;;
6111;SDS011;3086;48.802;9.394;2023-07-30T00:15:01;1.50;;;1.40;;
6111;SDS011;3086;48.802;9.394;2023-07-30T00:18:23;3.00;;;1.07;;
6111;SDS011;3086;48.802;9.394;2023-07-30T00:21:44;2.77;;;1.47;;
6111;SDS011;3086;48.802;9.394;2023-07-30T00:25:07;1.40;;;1.20;;
6111;SDS011;3086;48.802;9.394;2023-07-30T00:28:30;1.60;;;1.50;;
6111;SDS011;3086;48.802;9.394;2023-07-30T00:31:52;1.40;;;1.30;;
6111;SDS011;3086;48.802;9.394;2023-07-30T00:35:13;1.53;;;1.40;;
6111;SDS011;3086;48.802;9.394;2023-07-30T00:38:35;2.97;;;1.60;;
6111;SDS011;3086;48.802;9.394;2023-07-30T00:41:56;5.23;;;1.90;;
6111;SDS011;3086;48.802;9.394;2023-07-30T00:45:19;2.30;;;1.80;;
6111;SDS011;3086;48.802;9.394;2023-07-30T00:48:41;1.93;;;1.80;;
6111;SDS011;3086;48.802;9.394;2023-07-30T00:52:03;2.13;;;1.80;;
6111;SDS011;3086;48.802;9.394;2023-07-30T00:55:25;3.70;;;2.37;;
6111;SDS011;3086;48.802;9.394;2023-07-30T00:58:47;2.73;;;1.70;;
6111;SDS011;3086;48.802;9.394;2023-07-30T01:02:11;2.90;;;1.90;;
6111;SDS011;3086;48.802;9.394;2023-07-30T01:05:33;1.90;;;1.70;;
6111;SDS011;3086;48.802;9.394;2023-07-30T01:08:54;3.67;;;1.90;;
6111;SDS011;3086;48.802;9.394;2023-07-30T01:12:16;2.90;;;1.97;;
6111;SDS011;3086;48.802;9.394;2023-07-30T01:15:37;2.23;;;2.03;;
6111;SDS011;3086;48.802;9.394;2023-07-30T01:19:00;2.00;;;1.80;;
6111;SDS011;3086;48.802;9.394;2023-07-30T01:22:25;3.13;;;2.53;;
6111;SDS011;3086;48.802;9.394;2023-07-30T01:25:47;3.73;;;2.00;;
6111;SDS011;3086;48.802;9.394;2023-07-30T01:29:11;2.63;;;1.90;;
6111;SDS011;3086;48.802;9.394;2023-07-30T01:32:36;4.50;;;2.27;;
6111;SDS011;3086;48.802;9.394;2023-07-30T01:35:58;3.13;;;2.23;;
6111;SDS011;3086;48.802;9.394;2023-07-30T01:39:21;4.50;;;2.77;;
6111;SDS011;3086;48.802;9.394;2023-07-30T01:42:42;6.00;;;2.90;;
6111;SDS011;3086;48.802;9.394;2023-07-30T01:46:04;2.40;;;2.20;;
6111;SDS011;3086;48.802;9.394;2023-07-30T01:49:25;3.07;;;2.83;;
6111;SDS011;3086;48.802;9.394;2023-07-30T01:52:47;4.73;;;2.57;;
6111;SDS011;3086;48.802;9.394;2023-07-30T01:56:10;3.77;;;2.43;;
6111;SDS011;3086;48.802;9.394;2023-07-30T01:59:31;4.47;;;3.03;;
6111;SDS011;3086;48.802;9.394;2023-07-30T02:02:53;6.37;;;3.60;;
6111;SDS011;3086;48.802;9.394;2023-07-30T02:06:14;4.33;;;3.00;;
6111;SDS011;3086;48.802;9.394;2023-07-30T02:09:35;4.37;;;2.77;;
6111;SDS011;3086;48.802;9.394;2023-07-30T02:12:58;3.00;;;2.70;;
6111;SDS011;3086;48.802;9.394;2023-07-30T02:16:20;4.90;;;3.13;;
6111;SDS011;3086;48.802;9.394;2023-07-30T02:19:41;3.00;;;2.70;;
6111;SDS011;3086;48.802;9.394;2023-07-30T02:23:03;2.87;;;2.60;;
6111;SDS011;3086;48.802;9.394;2023-07-30T02:26:25;3.23;;;2.80;;
6111;SDS011;3086;48.802;9.394;2023-07-30T02:29:48;4.37;;;2.90;;
6111;SDS011;3086;48.802;9.394;2023-07-30T02:33:10;3.47;;;2.23;;
6111;SDS011;3086;48.802;9.394;2023-07-30T02:36:31;3.40;;;2.90;;
6111;SDS011;3086;48.802;9.394;2023-07-30T02:39:53;3.47;;;2.50;;
6111;SDS011;3086;48.802;9.394;2023-07-30T02:43:14;3.20;;;2.80;;
6111;SDS011;3086;48.802;9.394;2023-07-30T02:46:37;4.10;;;2.50;;
6111;SDS011;3086;48.802;9.394;2023-07-30T02:49:58;4.87;;;2.90;;
6111;SDS011;3086;48.802;9.394;2023-07-30T02:53:20;5.53;;;3.40;;
6111;SDS011;3086;48.802;9.394;2023-07-30T02:56:42;3.70;;;3.40;;
6111;SDS011;3086;48.802;9.394;2023-07-30T03:00:04;4.30;;;3.20;;
6111;SDS011;3086;48.802;9.394;2023-07-30T03:03:30;3.17;;;2.60;;
6111;SDS011;3086;48.802;9.394;2023-07-30T03:06:51;3.50;;;3.20;;
6111;SDS011;3086;48.802;9.394;2023-07-30T03:10:12;4.20;;;3.00;;
6111;SDS011;3086;48.802;9.394;2023-07-30T03:13:34;3.63;;;3.33;;
6111;SDS011;3086;48.802;9.394;2023-07-30T03:16:55;4.23;;;3.10;;
6111;SDS011;3086;48.802;9.394;2023-07-30T03:20:18;4.10;;;3.70;;
6111;SDS011;3086;48.802;9.394;2023-07-30T03:23:40;3.33;;;3.03;;
6111;SDS011;3086;48.802;9.394;2023-07-30T03:27:04;3.37;;;3.07;;
6111;SDS011;3086;48.802;9.394;2023-07-30T03:30:26;5.63;;;3.60;;
6111;SDS011;3086;48.802;9.394;2023-07-30T03:33:48;5.60;;;4.20;;
6111;SDS011;3086;48.802;9.394;2023-07-30T03:37:11;4.97;;;3.70;;
6111;SDS011;3086;48.802;9.394;2023-07-30T03:40:32;6.63;;;5.27;;
6111;SDS011;3086;48.802;9.394;2023-07-30T03:43:54;5.90;;;5.30;;
6111;SDS011;3086;48.802;9.394;2023-07-30T03:47:15;5.63;;;4.60;;
6111;SDS011;3086;48.802;9.394;2023-07-30T03:50:37;6.07;;;5.03;;
6111;SDS011;3086;48.802;9.394;2023-07-30T03:53:59;7.90;;;5.83;;
6111;SDS011;3086;48.802;9.394;2023-07-30T03:57:21;7.90;;;5.60;;
6111;SDS011;3086;48.802;9.394;2023-07-30T04:00:43;7.37;;;5.20;;
6111;SDS011;3086;48.802;9.394;2023-07-30T04:04:04;7.43;;;5.77;;
6111;SDS011;3086;48.802;9.394;2023-07-30T04:07:26;6.83;;;5.87;;
6111;SDS011;3086;48.802;9.394;2023-07-30T04:10:48;7.63;;;5.73;;
6111;SDS011;3086;48.802;9.394;2023-07-30T04:14:10;5.97;;;5.03;;
6111;SDS011;3086;48.802;9.394;2023-07-30T04:17:31;5.67;;;4.57;;
6111;SDS011;3086;48.802;9.394;2023-07-30T04:20:54;5.50;;;5.00;;
6111;SDS011;3086;48.802;9.394;2023-07-30T04:24:15;5.20;;;4.50;;
6111;SDS011;3086;48.802;9.394;2023-07-30T04:27:38;7.50;;;4.90;;
6111;SDS011;3086;48.802;9.394;2023-07-30T04:31:00;5.03;;;4.57;;
6111;SDS011;3086;48.802;9.394;2023-07-30T04:34:21;6.77;;;4.70;;
6111;SDS011;3086;48.802;9.394;2023-07-30T04:37:43;5.33;;;4.63;;
6111;SDS011;3086;48.802;9.394;2023-07-30T04:41:04;4.77;;;4.27;;
6111;SDS011;3086;48.802;9.394;2023-07-30T04:44:27;5.47;;;4.43;;
6111;SDS011;3086;48.802;9.394;2023-07-30T04:47:49;6.07;;;4.30;;
6111;SDS011;3086;48.802;9.394;2023-07-30T04:51:10;7.73;;;4.67;;
6111;SDS011;3086;48.802;9.394;2023-07-30T04:54:32;5.17;;;4.67;;
6111;SDS011;3086;48.802;9.394;2023-07-30T04:57:53;4.60;;;4.20;;
6111;SDS011;3086;48.802;9.394;2023-07-30T05:01:16;5.53;;;4.60;;
6111;SDS011;3086;48.802;9.394;2023-07-30T05:04:38;5.47;;;4.40;;
6111;SDS011;3086;48.802;9.394;2023-07-30T05:07:59;11.40;;;5.70;;
6111;SDS011;3086;48.802;9.394;2023-07-30T05:11:20;5.37;;;4.10;;
6111;SDS011;3086;48.802;9.394;2023-07-30T05:14:42;5.27;;;4.00;;
6111;SDS011;3086;48.802;9.394;2023-07-30T05:18:05;7.83;;;4.50;;
6111;SDS011;3086;48.802;9.394;2023-07-30T05:21:27;5.13;;;4.50;;
6111;SDS011;3086;48.802;9.394;2023-07-30T05:24:48;5.17;;;4.67;;
6111;SDS011;3086;48.802;9.394;2023-07-30T05:28:10;5.53;;;4.40;;
6111;SDS011;3086;48.802;9.394;2023-07-30T05:31:31;5.90;;;4.50;;
6111;SDS011;3086;48.802;9.394;2023-07-30T05:34:54;5.07;;;4.20;;
6111;SDS011;3086;48.802;9.394;2023-07-30T05:38:16;8.30;;;4.40;;
6111;SDS011;3086;48.802;9.394;2023-07-30T05:41:37;5.73;;;4.03;;
6111;SDS011;3086;48.802;9.394;2023-07-30T05:44:59;4.83;;;4.40;;
6111;SDS011;3086;48.802;9.394;2023-07-30T05:48:20;4.57;;;3.50;;
6111;SDS011;3086;48.802;9.394;2023-07-30T05:51:43;4.53;;;4.00;;
6111;SDS011;3086;48.802;9.394;2023-07-30T05:55:05;6.13;;;4.30;;
6111;SDS011;3086;48.802;9.394;2023-07-30T05:58:27;6.67;;;4.63;;
6111;SDS011;3086;48.802;9.394;2023-07-30T06:01:48;4.63;;;4.20;;
6111;SDS011;3086;48.802;9.394;2023-07-30T06:05:10;5.00;;;4.60;;
6111;SDS011;3086;48.802;9.394;2023-07-30T06:08:33;5.87;;;4.10;;
6111;SDS011;3086;48.802;9.394;2023-07-30T06:11:54;4.73;;;4.27;;
6111;SDS011;3086;48.802;9.394;2023-07-30T06:15:17;4.47;;;4.07;;
6111;SDS011;3086;48.802;9.394;2023-07-30T06:18:38;6.27;;;4.07;;
6111;SDS011;3086;48.802;9.394;2023-07-30T06:22:00;4.80;;;4.40;;
6111;SDS011;3086;48.802;9.394;2023-07-30T06:25:23;4.63;;;3.83;;
6111;SDS011;3086;48.802;9.394;2023-07-30T06:28:44;4.50;;;3.50;;
6111;SDS011;3086;48.802;9.394;2023-07-30T06:32:06;4.83;;;3.50;;
6111;SDS011;3086;48.802;9.394;2023-07-30T06:35:28;3.70;;;3.40;;
6111;SDS011;3086;48.802;9.394;2023-07-30T06:38:49;4.80;;;3.47;;
6111;SDS011;3086;48.802;9.394;2023-07-30T06:42:12;4.80;;;3.93;;
6111;SDS011;3086;48.802;9.394;2023-07-30T06:45:34;4.40;;;4.00;;
6111;SDS011;3086;48.802;9.394;2023-07-30T06:48:55;3.97;;;3.57;;
6111;SDS011;3086;48.802;9.394;2023-07-30T06:52:17;4.43;;;3.50;;
6111;SDS011;3086;48.802;9.394;2023-07-30T06:55:39;4.23;;;3.43;;
6111;SDS011;3086;48.802;9.394;2023-07-30T06:59:02;3.67;;;3.37;;
6111;SDS011;3086;48.802;9.394;2023-07-30T07:02:24;4.00;;;3.63;;
6111;SDS011;3086;48.802;9.394;2023-07-30T07:05:51;3.47;;;3.17;;
6111;SDS011;3086;48.802;9.394;2023-07-30T07:09:13;4.87;;;2.80;;
6111;SDS011;3086;48.802;9.394;2023-07-30T07:12:35;2.60;;;2.40;;
6111;SDS011;3086;48.802;9.394;2023-07-30T07:15:58;3.07;;;2.60;;
6111;SDS011;3086;48.802;9.394;2023-07-30T07:19:20;3.70;;;2.93;;
6111;SDS011;3086;48.802;9.394;2023-07-30T07:22:41;3.00;;;2.80;;
6111;SDS011;3086;48.802;9.394;2023-07-30T07:26:03;3.10;;;2.83;;
6111;SDS011;3086;48.802;9.394;2023-07-30T07:29:24;2.77;;;2.57;;
6111;SDS011;3086;48.802;9.394;2023-07-30T07:32:47;3.37;;;3.07;;
6111;SDS011;3086;48.802;9.394;2023-07-30T07:36:10;3.30;;;2.60;;
6111;SDS011;3086;48.802;9.394;2023-07-30T07:39:34;2.90;;;2.70;;
6111;SDS011;3086;48.802;9.394;2023-07-30T07:42:55;2.97;;;2.60;;
6111;SDS011;3086;48.802;9.394;2023-07-30T07:46:17;3.53;;;2.90;;
6111;SDS011;3086;48.802;9.394;2023-07-30T07:49:40;2.80;;;2.60;;
6111;SDS011;3086;48.802;9.394;2023-07-30T07:53:01;2.50;;;2.30;;
6111;SDS011;3086;48.802;9.394;2023-07-30T07:56:23;2.50;;;2.30;;
6111;SDS011;3086;48.802;9.394;2023-07-30T07:59:44;2.40;;;2.20;;
6111;SDS011;3086;48.802;9.394;2023-07-30T08:03:07;2.53;;;2.33;;
6111;SDS011;3086;48.802;9.394;2023-07-30T08:06:29;5.40;;;2.50;;
6111;SDS011;3086;48.802;9.394;2023-07-30T08:09:52;2.10;;;1.90;;
6111;SDS011;3086;48.802;9.394;2023-07-30T08:13:14;2.30;;;2.10;;
6111;SDS011;3086;48.802;9.394;2023-07-30T08:16:36;3.10;;;2.20;;
6111;SDS011;3086;48.802;9.394;2023-07-30T08:19:57;2.20;;;2.10;;
6111;SDS011;3086;48.802;9.394;2023-07-30T08:23:20;2.73;;;2.00;;
6111;SDS011;3086;48.802;9.394;2023-07-30T08:26:42;4.33;;;2.50;;
6111;SDS011;3086;48.802;9.394;2023-07-30T08:30:04;2.17;;;1.97;;
6111;SDS011;3086;48.802;9.394;2023-07-30T08:33:26;2.27;;;2.07;;
6111;SDS011;3086;48.802;9.394;2023-07-30T08:36:47;2.70;;;2.47;;
6111;SDS011;3086;48.802;9.394;2023-07-30T08:40:11;2.20;;;2.00;;
6111;SDS011;3086;48.802;9.394;2023-07-30T08:43:32;2.47;;;2.00;;
6111;SDS011;3086;48.802;9.394;2023-07-30T08:46:54;2.63;;;2.00;;
6111;SDS011;3086;48.802;9.394;2023-07-30T08:50:15;2.83;;;2.20;;
6111;SDS011;3086;48.802;9.394;2023-07-30T08:53:37;2.50;;;2.07;;
6111;SDS011;3086;48.802;9.394;2023-07-30T08:57:00;2.00;;;1.90;;
6111;SDS011;3086;48.802;9.394;2023-07-30T09:00:22;2.50;;;2.30;;
6111;SDS011;3086;48.802;9.394;2023-07-30T09:03:46;1.77;;;1.67;;
6111;SDS011;3086;48.802;9.394;2023-07-30T09:07:09;2.20;;;2.00;;
6111;SDS011;3086;48.802;9.394;2023-07-30T09:10:32;3.20;;;2.23;;
6111;SDS011;3086;48.802;9.394;2023-07-30T09:13:56;2.97;;;2.03;;
6111;SDS011;3086;48.802;9.394;2023-07-30T09:17:17;3.00;;;2.10;;
6111;SDS011;3086;48.802;9.394;2023-07-30T09:20:40;2.23;;;2.00;;
6111;SDS011;3086;48.802;9.394;2023-07-30T09:24:02;3.60;;;1.90;;
6111;SDS011;3086;48.802;9.394;2023-07-30T09:27:27;2.10;;;2.00;;
6111;SDS011;3086;48.802;9.394;2023-07-30T09:30:50;3.17;;;2.20;;
6111;SDS011;3086;48.802;9.394;2023-07-30T09:34:14;2.50;;;2.23;;
6111;SDS011;3086;48.802;9.394;2023-07-30T09:37:36;2.63;;;2.40;;
6111;SDS011;3086;48.802;9.394;2023-07-30T09:41:02;2.67;;;2.17;;
6111;SDS011;3086;48.802;9.394;2023-07-30T09:44:24;3.07;;;2.30;;
6111;SDS011;3086;48.802;9.394;2023-07-30T09:47:47;2.80;;;2.50;;
6111;SDS011;3086;48.802;9.394;2023-07-30T09:51:09;2.97;;;2.20;;
6111;SDS011;3086;48.802;9.394;2023-07-30T09:54:31;3.83;;;2.63;;
6111;SDS011;3086;48.802;9.394;2023-07-30T09:57:52;2.60;;;2.40;;
6111;SDS011;3086;48.802;9.394;2023-07-30T10:01:14;2.80;;;2.40;;
6111;SDS011;3086;48.802;9.394;2023-07-30T10:04:38;2.47;;;2.27;;
6111;SDS011;3086;48.802;9.394;2023-07-30T10:08:05;2.27;;;2.10;;
6111;SDS011;3086;48.802;9.394;2023-07-30T10:11:30;2.40;;;2.20;;
6111;SDS011;3086;48.802;9.394;2023-07-30T10:14:52;3.50;;;2.37;;
6111;SDS011;3086;48.802;9.394;2023-07-30T10:18:14;4.20;;;2.30;;
6111;SDS011;3086;48.802;9.394;2023-07-30T10:21:36;2.47;;;2.27;;
6111;SDS011;3086;48.802;9.394;2023-07-30T10:25:03;4.20;;;2.30;;
6111;SDS011;3086;48.802;9.394;2023-07-30T10:28:31;2.40;;;2.20;;
6111;SDS011;3086;48.802;9.394;2023-07-30T10:31:53;2.63;;;2.43;;
6111;SDS011;3086;48.802;9.394;2023-07-30T10:39:11;3.03;;;2.07;;
6111;SDS011;3086;48.802;9.394;2023-07-30T10:42:34;2.67;;;2.30;;
6111;SDS011;3086;48.802;9.394;2023-07-30T10:45:55;3.47;;;2.33;;
6111;SDS011;3086;48.802;9.394;2023-07-30T10:49:17;4.07;;;2.70;;
6111;SDS011;3086;48.802;9.394;2023-07-30T10:52:38;2.70;;;2.27;;
6111;SDS011;3086;48.802;9.394;2023-07-30T10:56:01;3.63;;;2.40;;
6111;SDS011;3086;48.802;9.394;2023-07-30T10:59:23;2.50;;;2.30;;
6111;SDS011;3086;48.802;9.394;2023-07-30T11:02:52;3.80;;;2.60;;
6111;SDS011;3086;48.802;9.394;2023-07-30T11:06:20;2.40;;;2.20;;
6111;SDS011;3086;48.802;9.394;2023-07-30T11:09:42;2.87;;;2.10;;
6111;SDS011;3086;48.802;9.394;2023-07-30T11:13:05;2.43;;;2.23;;
6111;SDS011;3086;48.802;9.394;2023-07-30T11:16:27;4.33;;;2.10;;
6111;SDS011;3086;48.802;9.394;2023-07-30T11:19:48;3.03;;;2.70;;
6111;SDS011;3086;48.802;9.394;2023-07-30T11:23:19;2.40;;;2.20;;
6111;SDS011;3086;48.802;9.394;2023-07-30T11:26:41;2.57;;;2.37;;
6111;SDS011;3086;48.802;9.394;2023-07-30T11:30:05;3.73;;;2.93;;
6111;SDS011;3086;48.802;9.394;2023-07-30T11:33:27;3.90;;;2.27;;
6111;SDS011;3086;48.802;9.394;2023-07-30T11:36:49;4.33;;;2.83;;
6111;SDS011;3086;48.802;9.394;2023-07-30T11:40:11;2.83;;;2.50;;
6111;SDS011;3086;48.802;9.394;2023-07-30T11:43:33;3.33;;;2.50;;
6111;SDS011;3086;48.802;9.394;2023-07-30T11:46:58;3.63;;;2.33;;
6111;SDS011;3086;48.802;9.394;2023-07-30T11:50:20;2.97;;;2.20;;
6111;SDS011;3086;48.802;9.394;2023-07-30T11:53:45;5.20;;;2.40;;
6111;SDS011;3086;48.802;9.394;2023-07-30T11:57:07;2.40;;;2.20;;
6111;SDS011;3086;48.802;9.394;2023-07-30T12:00:29;3.50;;;2.17;;
6111;SDS011;3086;48.802;9.394;2023-07-30T12:03:55;2.57;;;2.10;;
6111;SDS011;3086;48.802;9.394;2023-07-30T12:07:21;3.37;;;2.30;;
6111;SDS011;3086;48.802;9.394;2023-07-30T12:10:43;2.43;;;1.87;;
6111;SDS011;3086;48.802;9.394;2023-07-30T12:14:07;2.53;;;1.90;;
6111;SDS011;3086;48.802;9.394;2023-07-30T12:17:29;2.40;;;2.20;;
6111;SDS011;3086;48.802;9.394;2023-07-30T12:20:52;2.13;;;1.90;;
6111;SDS011;3086;48.802;9.394;2023-07-30T12:24:14;4.90;;;2.10;;
6111;SDS011;3086;48.802;9.394;2023-07-30T12:27:35;3.87;;;2.23;;
6111;SDS011;3086;48.802;9.394;2023-07-30T12:30:57;3.77;;;2.00;;
6111;SDS011;3086;48.802;9.394;2023-07-30T12:34:18;2.60;;;2.23;;
6111;SDS011;3086;48.802;9.394;2023-07-30T12:37:41;2.00;;;1.90;;
6111;SDS011;3086;48.802;9.394;2023-07-30T12:41:03;3.20;;;2.10;;
6111;SDS011;3086;48.802;9.394;2023-07-30T12:44:24;2.37;;;2.03;;
6111;SDS011;3086;48.802;9.394;2023-07-30T12:47:46;3.83;;;2.13;;
6111;SDS011;3086;48.802;9.394;2023-07-30T12:51:08;3.10;;;2.10;;
6111;SDS011;3086;48.802;9.394;2023-07-30T12:54:31;2.40;;;2.20;;
6111;SDS011;3086;48.802;9.394;2023-07-30T12:57:52;2.40;;;2.20;;
6111;SDS011;3086;48.802;9.394;2023-07-30T13:01:14;2.80;;;2.27;;
6111;SDS011;3086;48.802;9.394;2023-07-30T13:04:36;5.43;;;2.13;;
6111;SDS011;3086;48.802;9.394;2023-07-30T13:07:57;2.20;;;2.00;;
6111;SDS011;3086;48.802;9.394;2023-07-30T13:11:20;3.90;;;2.47;;
6111;SDS011;3086;48.802;9.394;2023-07-30T13:14:42;4.10;;;2.20;;
6111;SDS011;3086;48.802;9.394;2023-07-30T13:18:03;4.47;;;2.30;;
6111;SDS011;3086;48.802;9.394;2023-07-30T13:21:25;5.23;;;2.40;;
6111;SDS011;3086;48.802;9.394;2023-07-30T13:24:46;2.53;;;2.20;;
6111;SDS011;3086;48.802;9.394;2023-07-30T13:28:09;2.77;;;2.10;;
6111;SDS011;3086;48.802;9.394;2023-07-30T13:31:32;2.27;;;2.00;;
6111;SDS011;3086;48.802;9.394;2023-07-30T13:34:53;2.50;;;2.10;;
6111;SDS011;3086;48.802;9.394;2023-07-30T13:38:15;4.33;;;2.03;;
6111;SDS011;3086;48.802;9.394;2023-07-30T13:41:36;3.53;;;1.90;;
6111;SDS011;3086;48.802;9.394;2023-07-30T13:44:59;2.13;;;2.03;;
6111;SDS011;3086;48.802;9.394;2023-07-30T13:48:21;3.33;;;1.77;;
6111;SDS011;3086;48.802;9.394;2023-07-30T13:51:42;1.97;;;1.77;;
6111;SDS011;3086;48.802;9.394;2023-07-30T13:55:04;4.33;;;2.17;;
6111;SDS011;3086;48.802;9.394;2023-07-30T13:58:26;2.07;;;1.83;;
6111;SDS011;3086;48.802;9.394;2023-07-30T14:01:49;2.20;;;1.93;;
6111;SDS011;3086;48.802;9.394;2023-07-30T14:05:12;4.37;;;2.10;;
6111;SDS011;3086;48.802;9.394;2023-07-30T14:08:33;2.63;;;2.20;;
6111;SDS011;3086;48.802;9.394;2023-07-30T14:11:55;3.27;;;2.00;;
6111;SDS011;3086;48.802;9.394;2023-07-30T14:15:16;3.30;;;2.20;;
6111;SDS011;3086;48.802;9.394;2023-07-30T14:18:39;3.23;;;2.03;;
6111;SDS011;3086;48.802;9.394;2023-07-30T14:22:01;3.07;;;1.83;;
6111;SDS011;3086;48.802;9.394;2023-07-30T14:25:22;4.80;;;2.10;;
6111;SDS011;3086;48.802;9.394;2023-07-30T14:28:44;3.63;;;2.07;;
6111;SDS011;3086;48.802;9.394;2023-07-30T14:32:06;1.77;;;1.67;;
6111;SDS011;3086;48.802;9.394;2023-07-30T14:35:29;3.93;;;2.20;;
6111;SDS011;3086;48.802;9.394;2023-07-30T14:38:50;3.37;;;2.00;;
6111;SDS011;3086;48.802;9.394;2023-07-30T14:42:12;4.23;;;2.10;;
6111;SDS011;3086;48.802;9.394;2023-07-30T14:45:33;2.50;;;1.80;;
6111;SDS011;3086;48.802;9.394;2023-07-30T14:48:56;2.57;;;1.77;;
6111;SDS011;3086;48.802;9.394;2023-07-30T14:52:19;2.03;;;1.70;;
6111;SDS011;3086;48.802;9.394;2023-07-30T14:55:41;3.83;;;2.20;;
6111;SDS011;3086;48.802;9.394;2023-07-30T14:59:02;2.90;;;2.10;;
6111;SDS011;3086;48.802;9.394;2023-07-30T15:02:23;5.33;;;1.70;;
6111;SDS011;3086;48.802;9.394;2023-07-30T15:05:46;4.80;;;1.90;;
6111;SDS011;3086;48.802;9.394;2023-07-30T15:09:09;2.50;;;1.87;;
6111;SDS011;3086;48.802;9.394;2023-07-30T15:12:31;6.43;;;2.33;;
6111;SDS011;3086;48.802;9.394;2023-07-30T15:15:52;1.90;;;1.70;;
6111;SDS011;3086;48.802;9.394;2023-07-30T15:19:14;2.70;;;1.93;;
6111;SDS011;3086;48.802;9.394;2023-07-30T15:22:35;2.27;;;1.93;;
6111;SDS011;3086;48.802;9.394;2023-07-30T15:25:58;3.17;;;2.20;;
6111;SDS011;3086;48.802;9.394;2023-07-30T15:29:20;3.03;;;1.57;;
6111;SDS011;3086;48.802;9.394;2023-07-30T15:32:42;2.43;;;2.20;;
6111;SDS011;3086;48.802;9.394;2023-07-30T15:36:04;5.30;;;1.80;;
6111;SDS011;3086;48.802;9.394;2023-07-30T15:39:27;2.43;;;1.60;;
6111;SDS011;3086;48.802;9.394;2023-07-30T15:42:49;3.33;;;2.00;;
6111;SDS011;3086;48.802;9.394;2023-07-30T15:46:11;3.17;;;2.37;;
6111;SDS011;3086;48.802;9.394;2023-07-30T15:49:34;2.50;;;1.77;;
6111;SDS011;3086;48.802;9.394;2023-07-30T15:52:55;3.63;;;2.10;;
6111;SDS011;3086;48.802;9.394;2023-07-30T15:56:17;2.47;;;1.70;;
6111;SDS011;3086;48.802;9.394;2023-07-30T15:59:41;4.33;;;1.90;;
6111;SDS011;3086;48.802;9.394;2023-07-30T16:03:05;4.33;;;2.00;;
6111;SDS011;3086;48.802;9.394;2023-07-30T16:06:28;3.10;;;1.70;;
6111;SDS011;3086;48.802;9.394;2023-07-30T16:09:50;3.00;;;1.63;;
6111;SDS011;3086;48.802;9.394;2023-07-30T16:13:11;3.03;;;1.70;;
6111;SDS011;3086;48.802;9.394;2023-07-30T16:16:34;3.50;;;1.90;;
6111;SDS011;3086;48.802;9.394;2023-07-30T16:19:58;2.60;;;1.97;;
6111;SDS011;3086;48.802;9.394;2023-07-30T16:23:19;6.33;;;5.73;;
6111;SDS011;3086;48.802;9.394;2023-07-30T16:26:41;2.97;;;1.80;;
6111;SDS011;3086;48.802;9.394;2023-07-30T16:30:03;5.60;;;2.63;;
6111;SDS011;3086;48.802;9.394;2023-07-30T16:33:26;5.20;;;2.30;;
6111;SDS011;3086;48.802;9.394;2023-07-30T16:36:48;3.90;;;1.90;;
6111;SDS011;3086;48.802;9.394;2023-07-30T16:40:09;3.33;;;1.90;;
6111;SDS011;3086;48.802;9.394;2023-07-30T16:43:32;4.67;;;1.77;;
6111;SDS011;3086;48.802;9.394;2023-07-30T16:46:54;2.57;;;1.70;;
6111;SDS011;3086;48.802;9.394;2023-07-30T16:50:17;4.53;;;1.83;;
6111;SDS011;3086;48.802;9.394;2023-07-30T16:53:38;5.50;;;2.20;;
6111;SDS011;3086;48.802;9.394;2023-07-30T16:57:00;2.80;;;2.13;;
6111;SDS011;3086;48.802;9.394;2023-07-30T17:00:21;2.40;;;1.70;;
6111;SDS011;3086;48.802;9.394;2023-07-30T17:03:44;3.00;;;1.97;;
6111;SDS011;3086;48.802;9.394;2023-07-30T17:07:07;4.23;;;2.47;;
6111;SDS011;3086;48.802;9.394;2023-07-30T17:10:28;3.17;;;2.27;;
6111;SDS011;3086;48.802;9.394;2023-07-30T17:13:50;4.53;;;2.10;;
6111;SDS011;3086;48.802;9.394;2023-07-30T17:17:13;2.10;;;1.70;;
6111;SDS011;3086;48.802;9.394;2023-07-30T17:20:35;4.23;;;1.63;;
6111;SDS011;3086;48.802;9.394;2023-07-30T17:23:58;4.93;;;2.10;;
6111;SDS011;3086;48.802;9.394;2023-07-30T17:27:19;2.43;;;1.60;;
6111;SDS011;3086;48.802;9.394;2023-07-30T17:30:41;3.47;;;1.77;;
6111;SDS011;3086;48.802;9.394;2023-07-30T17:34:03;3.23;;;1.70;;
6111;SDS011;3086;48.802;9.394;2023-07-30T17:37:24;5.33;;;1.97;;
6111;SDS011;3086;48.802;9.394;2023-07-30T17:40:51;4.47;;;1.93;;
6111;SDS011;3086;48.802;9.394;2023-07-30T17:44:13;3.47;;;2.17;;
6111;SDS011;3086;48.802;9.394;2023-07-30T17:47:34;1.93;;;1.50;;
6111;SDS011;3086;48.802;9.394;2023-07-30T17:50:56;3.27;;;1.67;;
6111;SDS011;3086;48.802;9.394;2023-07-30T17:54:18;2.43;;;1.90;;
6111;SDS011;3086;48.802;9.394;2023-07-30T17:57:41;2.83;;;1.80;;
6111;SDS011;3086;48.802;9.394;2023-07-30T18:01:02;4.30;;;2.43;;
6111;SDS011;3086;48.802;9.394;2023-07-30T18:04:24;2.80;;;1.73;;
6111;SDS011;3086;48.802;9.394;2023-07-30T18:07:46;2.67;;;1.87;;
6111;SDS011;3086;48.802;9.394;2023-07-30T18:11:07;2.73;;;1.80;;
6111;SDS011;3086;48.802;9.394;2023-07-30T18:14:30;3.57;;;1.93;;
6111;SDS011;3086;48.802;9.394;2023-07-30T18:17:54;5.20;;;1.80;;
6111;SDS011;3086;48.802;9.394;2023-07-30T18:21:16;3.67;;;1.93;;
6111;SDS011;3086;48.802;9.394;2023-07-30T18:24:37;3.40;;;1.80;;
6111;SDS011;3086;48.802;9.394;2023-07-30T18:27:59;5.30;;;2.10;;
6111;SDS011;3086;48.802;9.394;2023-07-30T18:31:22;4.20;;;2.20;;
6111;SDS011;3086;48.802;9.394;2023-07-30T18:34:43;4.27;;;2.00;;
6111;SDS011;3086;48.802;9.394;2023-07-30T18:38:06;3.87;;;1.57;;
6111;SDS011;3086;48.802;9.394;2023-07-30T18:41:28;3.63;;;1.90;;
6111;SDS011;3086;48.802;9.394;2023-07-30T18:44:52;4.27;;;1.93;;
6111;SDS011;3086;48.802;9.394;2023-07-30T18:48:15;4.27;;;2.40;;
6111;SDS011;3086;48.802;9.394;2023-07-30T18:51:38;4.00;;;2.13;;
6111;SDS011;3086;48.802;9.394;2023-07-30T18:54:59;3.97;;;1.77;;
6111;SDS011;3086;48.802;9.394;2023-07-30T18:58:21;4.30;;;2.00;;
6111;SDS011;3086;48.802;9.394;2023-07-30T19:01:42;3.87;;;2.20;;
6111;SDS011;3086;48.802;9.394;2023-07-30T19:05:06;4.77;;;2.10;;
6111;SDS011;3086;48.802;9.394;2023-07-30T19:08:28;2.87;;;2.13;;
6111;SDS011;3086;48.802;9.394;2023-07-30T19:11:49;3.47;;;2.13;;
6111;SDS011;3086;48.802;9.394;2023-07-30T19:15:11;3.50;;;1.93;;
6111;SDS011;3086;48.802;9.394;2023-07-30T19:18:32;3.10;;;1.80;;
6111;SDS011;3086;48.802;9.394;2023-07-30T19:21:55;3.53;;;1.77;;
6111;SDS011;3086;48.802;9.394;2023-07-30T19:25:17;4.80;;;2.20;;
6111;SDS011;3086;48.802;9.394;2023-07-30T19:28:38;3.57;;;1.90;;
6111;SDS011;3086;48.802;9.394;2023-07-30T19:32:00;3.63;;;2.27;;
6111;SDS011;3086;48.802;9.394;2023-07-30T19:35:21;3.50;;;2.20;;
6111;SDS011;3086;48.802;9.394;2023-07-30T19:38:44;5.57;;;2.17;;
6111;SDS011;3086;48.802;9.394;2023-07-30T19:42:06;6.57;;;2.20;;
6111;SDS011;3086;48.802;9.394;2023-07-30T19:45:27;4.30;;;2.00;;
6111;SDS011;3086;48.802;9.394;2023-07-30T19:48:49;3.77;;;2.10;;
6111;SDS011;3086;48.802;9.394;2023-07-30T19:52:10;3.53;;;2.10;;
6111;SDS011;3086;48.802;9.394;2023-07-30T19:55:33;11.13;;;2.40;;
6111;SDS011;3086;48.802;9.394;2023-07-30T19:58:55;3.43;;;2.07;;
6111;SDS011;3086;48.802;9.394;2023-07-30T20:02:17;3.30;;;2.20;;
6111;SDS011;3086;48.802;9.394;2023-07-30T20:05:39;5.87;;;2.27;;
6111;SDS011;3086;48.802;9.394;2023-07-30T20:09:00;9.73;;;2.30;;
6111;SDS011;3086;48.802;9.394;2023-07-30T20:12:24;3.77;;;2.43;;
6111;SDS011;3086;48.802;9.394;2023-07-30T20:15:45;4.37;;;2.80;;
6111;SDS011;3086;48.802;9.394;2023-07-30T20:19:07;8.30;;;2.87;;
6111;SDS011;3086;48.802;9.394;2023-07-30T20:22:28;6.13;;;2.90;;
6111;SDS011;3086;48.802;9.394;2023-07-30T20:25:50;4.87;;;2.63;;
6111;SDS011;3086;48.802;9.394;2023-07-30T20:29:12;3.53;;;2.63;;
6111;SDS011;3086;48.802;9.394;2023-07-30T20:32:36;3.63;;;2.73;;
6111;SDS011;3086;48.802;9.394;2023-07-30T20:35:58;5.90;;;2.47;;
6111;SDS011;3086;48.802;9.394;2023-07-30T20:39:20;5.20;;;2.57;;
6111;SDS011;3086;48.802;9.394;2023-07-30T20:42:41;4.90;;;2.57;;
6111;SDS011;3086;48.802;9.394;2023-07-30T20:46:08;4.53;;;2.30;;
6111;SDS011;3086;48.802;9.394;2023-07-30T20:49:31;2.83;;;2.07;;
6111;SDS011;3086;48.802;9.394;2023-07-30T20:52:53;5.70;;;2.50;;
6111;SDS011;3086;48.802;9.394;2023-07-30T20:56:15;5.03;;;2.80;;
6111;SDS011;3086;48.802;9.394;2023-07-30T20:59:40;4.30;;;2.20;;